Camden, Michigan
Current Conditions -  °F | °C
As of 4:54 PM on Friday 28 Nov 2014 (Local Time) from KJYM Reporting Station
Overcast Overcast  
Wind Chill: -7°   Ceiling: 7000
Heat Index: -3°   Visibility: 10mi
Dew Point: -6°   Wind: 6mph
Humidity: 80%   Direction: 170°S
Pressure: 30.1"   Gusts: NA
Location:  41.75°N, 84.76°W
Report Text: KJYM 282154Z AUTO 17005KT 10SM BKN070 OVC110 M03/M06 A3010 RMK AO2 T10341064
Loading
Personal Weather Stations






























Interactive Weather Map New forecast layout! Learn more

10-Day Weather Forecast

Advertisements
Track Severe Weather on mobile